Time;durP1;ratioP1;P1;durP2;ratioP2;P2;SDS_P1;SDS_P2;PMS_P1;PMS_P2;Temp;Humidity;BMP_temperature;BMP_pressure;BME280_temperature;BME280_humidity;BME280_pressure;Samples;Min_cycle;Max_cycle;Signal;HPM_P1;HPM_P2
2021/05/19 00:01:37;;;;;;;4.17;3.87;;;14.30;91.40;;;;;;5009704;28;20695;-53
2021/05/19 00:04:04;;;;;;;3.23;2.80;;;14.30;91.30;;;;;;5009362;28;21168;-56
2021/05/19 00:06:30;;;;;;;3.67;3.30;;;14.40;91.30;;;;;;5009709;28;20660;-55
2021/05/19 00:08:57;;;;;;;3.83;3.43;;;14.40;91.10;;;;;;5009789;28;20686;-55
2021/05/19 00:11:24;;;;;;;4.93;3.57;;;14.40;91.00;;;;;;5009530;28;20632;-54
2021/05/19 00:13:51;;;;;;;3.90;3.47;;;14.40;91.30;;;;;;5009745;28;21235;-54
2021/05/19 00:16:18;;;;;;;6.50;3.53;;;14.50;90.90;;;;;;5009223;28;20756;-55
2021/05/19 00:18:45;;;;;;;6.20;3.83;;;14.50;90.90;;;;;;5009057;28;21133;-55
2021/05/19 00:21:12;;;;;;;2.80;2.60;;;14.50;90.70;;;;;;5008986;28;20737;-55
2021/05/19 00:23:39;;;;;;;4.13;3.70;;;14.50;90.30;;;;;;5009994;28;20632;-55
2021/05/19 00:26:05;;;;;;;3.83;3.53;;;14.50;90.50;;;;;;5009315;28;20726;-53
2021/05/19 00:28:32;;;;;;;4.10;3.70;;;14.50;90.70;;;;;;4989468;28;21176;-54
2021/05/19 00:31:02;;;;;;;4.00;3.70;;;14.40;91.00;;;;;;4995458;28;20682;-54
2021/05/19 00:33:29;;;;;;;3.90;3.60;;;14.30;91.10;;;;;;5012541;28;20946;-53
2021/05/19 00:35:56;;;;;;;3.43;3.20;;;14.30;91.30;;;;;;5012608;28;20710;-54
2021/05/19 00:38:23;;;;;;;4.20;3.80;;;14.30;91.30;;;;;;5012380;28;20623;-54
2021/05/19 00:40:50;;;;;;;4.23;3.90;;;14.30;91.30;;;;;;5012742;28;20733;-54
2021/05/19 00:43:16;;;;;;;3.23;3.03;;;14.20;91.30;;;;;;5012835;28;20627;-54
2021/05/19 00:45:43;;;;;;;3.53;3.23;;;14.20;91.20;;;;;;5000128;28;20715;-54
2021/05/19 00:48:11;;;;;;;4.20;3.67;;;14.10;91.20;;;;;;5009489;28;20632;-54
2021/05/19 00:50:38;;;;;;;3.70;3.40;;;14.00;91.30;;;;;;5012520;28;20631;-55
2021/05/19 00:53:06;;;;;;;3.23;2.93;;;14.00;91.40;;;;;;5012169;28;20639;-54
2021/05/19 00:55:33;;;;;;;3.37;3.07;;;13.90;91.30;;;;;;5012585;28;20660;-55
2021/05/19 00:58:00;;;;;;;6.70;3.80;;;13.90;91.30;;;;;;5011816;28;20712;-54
2021/05/19 01:00:27;;;;;;;3.10;2.90;;;13.80;91.30;;;;;;5012601;28;20693;-55
2021/05/19 01:02:54;;;;;;;3.13;2.90;;;13.70;91.20;;;;;;5012428;28;20635;-54
2021/05/19 01:05:26;;;;;;;2.93;2.73;;;13.60;91.20;;;;;;5012239;28;21212;-55
2021/05/19 01:10:38;;;;;;;3.27;2.97;;;13.60;91.40;;;;;;5012947;28;20970;-55
2021/05/19 01:13:05;;;;;;;7.40;4.77;;;13.60;91.50;;;;;;5012567;28;20662;-54
2021/05/19 01:15:32;;;;;;;4.23;3.93;;;13.60;91.50;;;;;;5012110;28;20659;-54
2021/05/19 01:17:59;;;;;;;3.60;3.30;;;13.60;91.60;;;;;;5012204;28;20631;-54
2021/05/19 01:20:25;;;;;;;4.43;3.73;;;13.60;91.70;;;;;;5011866;28;20632;-55
2021/05/19 01:22:53;;;;;;;3.53;3.30;;;13.60;91.70;;;;;;5012081;28;20647;-54
2021/05/19 01:25:20;;;;;;;3.53;3.23;;;13.60;91.70;;;;;;5011806;28;21233;-54
2021/05/19 01:27:51;;;;;;;4.40;3.43;;;13.60;91.80;;;;;;5011088;28;20628;-53
2021/05/19 01:30:19;;;;;;;4.33;3.80;;;13.70;91.90;;;;;;5012051;28;20639;-53
2021/05/19 01:32:46;;;;;;;3.83;3.50;;;13.60;91.80;;;;;;5012052;28;21022;-54
2021/05/19 01:35:13;;;;;;;3.37;3.07;;;13.70;91.70;;;;;;5012330;28;21254;-54
2021/05/19 01:37:42;;;;;;;5.23;3.80;;;13.60;91.70;;;;;;5011519;28;20627;-53
2021/05/19 01:40:12;;;;;;;3.60;2.90;;;13.60;91.70;;;;;;5011594;28;20793;-56
2021/05/19 01:42:39;;;;;;;4.40;3.00;;;13.60;91.60;;;;;;5011212;28;20728;-54
2021/05/19 01:45:07;;;;;;;3.73;3.43;;;13.50;91.50;;;;;;5011709;28;20648;-54
2021/05/19 01:47:39;;;;;;;3.13;2.83;;;13.50;91.40;;;;;;5011359;28;20685;-56
2021/05/19 01:50:08;;;;;;;3.70;3.40;;;13.40;91.40;;;;;;5011802;28;20635;-55
2021/05/19 01:52:35;;;;;;;3.57;3.37;;;13.40;91.50;;;;;;5012159;28;20658;-53
2021/05/19 01:55:03;;;;;;;2.60;2.40;;;13.40;91.40;;;;;;5011271;28;21032;-55
2021/05/19 01:57:31;;;;;;;3.93;3.53;;;13.40;91.30;;;;;;5010891;28;20735;-54
2021/05/19 01:59:57;;;;;;;3.47;3.13;;;13.40;91.40;;;;;;5011750;28;21203;-56
2021/05/19 02:02:24;;;;;;;4.07;3.40;;;13.40;91.30;;;;;;5011389;28;20694;-56
2021/05/19 02:04:51;;;;;;;5.23;3.30;;;13.50;91.50;;;;;;5011095;28;21036;-55
2021/05/19 02:07:17;;;;;;;3.90;3.50;;;13.50;91.50;;;;;;5011516;28;20690;-55
2021/05/19 02:09:44;;;;;;;3.53;3.30;;;13.50;91.50;;;;;;5011202;28;20627;-56
2021/05/19 02:12:12;;;;;;;3.70;3.33;;;13.50;91.80;;;;;;5010695;28;20665;-56
2021/05/19 02:14:39;;;;;;;3.90;3.33;;;13.50;91.50;;;;;;5010978;28;20639;-55
2021/05/19 02:17:06;;;;;;;3.73;3.43;;;13.50;91.60;;;;;;5010665;28;20628;-53
2021/05/19 02:19:33;;;;;;;3.80;3.50;;;13.40;91.60;;;;;;5010672;28;20780;-53
2021/05/19 02:21:59;;;;;;;4.17;3.73;;;13.40;91.70;;;;;;5010869;28;21228;-53
2021/05/19 02:24:26;;;;;;;4.73;4.40;;;13.40;91.70;;;;;;5010238;28;20631;-53
2021/05/19 02:26:53;;;;;;;4.17;3.87;;;13.40;91.80;;;;;;5010590;28;20697;-54
2021/05/19 02:29:20;;;;;;;4.23;3.83;;;13.30;91.80;;;;;;5010001;28;20628;-52
2021/05/19 02:31:47;;;;;;;4.30;4.00;;;13.30;91.80;;;;;;5010657;28;20702;-54
2021/05/19 02:34:14;;;;;;;4.70;3.47;;;13.30;91.90;;;;;;5010330;28;21132;-54
2021/05/19 02:36:41;;;;;;;4.40;3.67;;;13.30;92.00;;;;;;5010524;28;21297;-55
2021/05/19 02:39:09;;;;;;;4.67;4.27;;;13.20;92.00;;;;;;5010500;28;20624;-55
2021/05/19 02:41:36;;;;;;;3.53;3.33;;;13.30;92.00;;;;;;5010508;28;20672;-55
2021/05/19 02:44:04;;;;;;;4.07;3.67;;;13.30;92.10;;;;;;5010330;28;21128;-55
2021/05/19 02:46:30;;;;;;;4.67;3.43;;;13.20;92.00;;;;;;4993313;28;20679;-53
2021/05/19 02:49:01;;;;;;;3.90;3.60;;;13.30;92.10;;;;;;4990588;28;20674;-54
2021/05/19 02:51:29;;;;;;;3.90;3.60;;;13.30;92.00;;;;;;5020313;28;20689;-54
2021/05/19 02:53:56;;;;;;;4.17;3.77;;;13.30;92.00;;;;;;4997510;28;21000;-55
2021/05/19 02:56:23;;;;;;;3.67;3.37;;;13.40;91.90;;;;;;5010348;28;20663;-55
2021/05/19 02:58:49;;;;;;;4.90;4.53;;;13.40;91.90;;;;;;5009618;28;21009;-55
2021/05/19 03:01:16;;;;;;;4.93;4.30;;;13.40;91.90;;;;;;5010178;28;20721;-54
2021/05/19 03:03:43;;;;;;;4.97;4.33;;;13.40;92.00;;;;;;5010747;28;20781;-54
2021/05/19 03:06:10;;;;;;;4.70;4.30;;;13.30;92.10;;;;;;5010184;28;20650;-56
2021/05/19 03:08:37;;;;;;;4.70;4.30;;;13.30;92.20;;;;;;5009493;28;20623;-55
2021/05/19 03:11:04;;;;;;;5.80;5.40;;;13.30;92.30;;;;;;5009800;28;20671;-55
2021/05/19 03:13:31;;;;;;;6.00;5.50;;;13.30;92.30;;;;;;5010857;28;20655;-54
2021/05/19 03:15:58;;;;;;;6.67;6.17;;;13.30;92.30;;;;;;5009640;28;20667;-55
2021/05/19 03:18:24;;;;;;;6.07;5.57;;;13.30;92.30;;;;;;5009249;28;21213;-55
2021/05/19 03:20:51;;;;;;;5.97;5.53;;;13.30;92.30;;;;;;5009370;28;20689;-53
2021/05/19 03:23:18;;;;;;;5.47;5.00;;;13.30;92.60;;;;;;5009851;28;20672;-54
2021/05/19 03:25:45;;;;;;;6.23;5.63;;;13.20;92.40;;;;;;5009626;28;21158;-53
2021/05/19 03:28:13;;;;;;;6.07;5.57;;;13.20;92.40;;;;;;5009480;28;20628;-55
2021/05/19 03:30:39;;;;;;;6.07;5.43;;;13.20;92.50;;;;;;5009941;28;20632;-53
2021/05/19 03:33:06;;;;;;;5.97;5.37;;;13.20;92.50;;;;;;5009669;28;20627;-55
2021/05/19 03:35:33;;;;;;;6.03;5.10;;;13.20;92.50;;;;;;5009404;28;20663;-55
2021/05/19 03:38:00;;;;;;;6.40;5.60;;;13.30;92.50;;;;;;5009943;28;20675;-53
2021/05/19 03:40:27;;;;;;;5.47;4.97;;;13.20;92.40;;;;;;5009811;28;20666;-54
2021/05/19 03:42:54;;;;;;;4.80;4.40;;;13.20;92.40;;;;;;5009645;28;20829;-54
2021/05/19 03:45:21;;;;;;;12.60;5.77;;;13.30;92.40;;;;;;5009102;28;20659;-54
2021/05/19 03:47:50;;;;;;;5.33;4.77;;;13.30;92.40;;;;;;5008986;28;21157;-53
2021/05/19 03:50:17;;;;;;;6.70;5.50;;;13.20;92.30;;;;;;5009181;28;21053;-55
2021/05/19 03:52:44;;;;;;;6.83;6.10;;;13.20;92.30;;;;;;5009230;28;20682;-52
2021/05/19 03:55:11;;;;;;;5.87;5.30;;;13.10;92.30;;;;;;5009134;28;20691;-53
2021/05/19 03:57:39;;;;;;;5.57;5.17;;;13.00;92.30;;;;;;5008773;28;20632;-52
2021/05/19 04:00:09;;;;;;;5.20;4.80;;;13.00;92.40;;;;;;5009359;28;21164;-52
2021/05/19 04:02:35;;;;;;;5.43;4.93;;;13.00;92.50;;;;;;5009562;28;20710;-52
2021/05/19 04:05:02;;;;;;;4.67;4.27;;;13.00;92.50;;;;;;5011774;28;20690;-53
2021/05/19 04:07:29;;;;;;;5.73;5.23;;;13.00;92.50;;;;;;5012583;28;20709;-51
2021/05/19 04:09:56;;;;;;;5.53;5.00;;;13.00;92.50;;;;;;5013669;28;20667;-52
2021/05/19 04:12:22;;;;;;;5.80;5.37;;;13.00;92.50;;;;;;5013501;28;20643;-53
2021/05/19 04:14:50;;;;;;;6.23;5.63;;;12.90;92.50;;;;;;5012882;28;20637;-52
2021/05/19 04:17:17;;;;;;;7.13;6.33;;;12.90;92.70;;;;;;5013206;28;20654;-52
2021/05/19 04:19:43;;;;;;;6.80;6.20;;;12.90;92.90;;;;;;5012927;28;20696;-52
2021/05/19 04:22:10;;;;;;;6.60;5.97;;;12.90;93.00;;;;;;5013142;28;20734;-52
2021/05/19 04:24:37;;;;;;;8.47;7.30;;;12.80;93.10;;;;;;5012534;28;21152;-53
2021/05/19 04:27:04;;;;;;;9.50;7.10;;;12.80;93.20;;;;;;5012909;28;20643;-52
2021/05/19 04:29:31;;;;;;;7.37;6.77;;;12.80;93.30;;;;;;5012613;28;20759;-53
2021/05/19 04:31:58;;;;;;;8.97;7.30;;;12.80;93.30;;;;;;5012304;28;21103;-53
2021/05/19 04:34:25;;;;;;;7.80;5.80;;;12.80;93.40;;;;;;5012559;28;20659;-53
2021/05/19 04:36:52;;;;;;;6.00;5.40;;;12.80;93.40;;;;;;5011922;28;20735;-53
2021/05/19 04:39:18;;;;;;;6.57;6.03;;;12.80;93.50;;;;;;5012229;28;20635;-52
2021/05/19 04:41:45;;;;;;;7.03;6.20;;;12.80;93.40;;;;;;5011406;28;20716;-52
2021/05/19 04:44:12;;;;;;;6.73;6.00;;;12.80;93.50;;;;;;4995633;28;21005;-52
2021/05/19 04:46:39;;;;;;;7.50;6.70;;;12.90;93.60;;;;;;5010984;28;20663;-52
2021/05/19 04:49:06;;;;;;;7.53;5.90;;;12.90;93.50;;;;;;5011964;28;20631;-52
2021/05/19 04:51:34;;;;;;;6.37;5.40;;;12.90;93.50;;;;;;5012435;28;20682;-51
2021/05/19 04:54:01;;;;;;;16.80;8.10;;;13.00;93.50;;;;;;5011546;28;20713;-53
2021/05/19 04:56:28;;;;;;;5.23;4.83;;;12.90;93.30;;;;;;5012863;28;20754;-52
2021/05/19 04:58:54;;;;;;;5.53;5.13;;;12.90;93.30;;;;;;5012060;28;21230;-51
2021/05/19 05:01:21;;;;;;;4.93;4.53;;;12.90;93.40;;;;;;5018694;28;20692;-52
2021/05/19 05:03:48;;;;;;;5.60;5.10;;;12.90;93.50;;;;;;5014991;28;21000;-52
2021/05/19 05:06:15;;;;;;;6.17;5.67;;;12.90;93.60;;;;;;5011723;28;21290;-52
2021/05/19 05:08:42;;;;;;;6.17;5.57;;;12.90;93.60;;;;;;5011236;28;20999;-53
2021/05/19 05:11:09;;;;;;;5.37;4.87;;;12.90;93.60;;;;;;5016602;28;20926;-53
2021/05/19 05:13:35;;;;;;;4.97;4.57;;;12.90;93.60;;;;;;5031814;28;20622;-52
2021/05/19 05:16:02;;;;;;;4.90;4.47;;;12.90;93.60;;;;;;5028416;28;20712;-53
2021/05/19 05:18:34;;;;;;;5.97;5.47;;;12.90;93.50;;;;;;5011311;28;20693;-52
2021/05/19 05:21:01;;;;;;;6.10;5.50;;;12.90;93.60;;;;;;5011557;28;20639;-53
2021/05/19 05:23:29;;;;;;;6.00;5.40;;;12.90;93.70;;;;;;5010115;28;20798;-52
2021/05/19 05:25:56;;;;;;;5.90;5.40;;;13.00;93.90;;;;;;5013778;28;20737;-52
2021/05/19 05:28:22;;;;;;;6.37;5.87;;;13.00;93.80;;;;;;5010501;28;20640;-52
2021/05/19 05:30:49;;;;;;;7.00;6.27;;;12.90;93.70;;;;;;5010771;28;20636;-53
2021/05/19 05:33:16;;;;;;;5.80;5.30;;;12.90;93.80;;;;;;5010406;28;21294;-52
2021/05/19 05:35:43;;;;;;;20.80;7.80;;;13.00;94.20;;;;;;5010453;28;20670;-53
2021/05/19 05:38:09;;;;;;;6.47;5.87;;;13.00;93.70;;;;;;5010577;28;21181;-54
2021/05/19 05:40:37;;;;;;;7.60;6.10;;;13.00;93.80;;;;;;5010419;28;20678;-53
2021/05/19 05:43:04;;;;;;;7.40;6.03;;;13.10;93.90;;;;;;5010989;28;20692;-55
2021/05/19 05:45:30;;;;;;;6.77;6.13;;;13.00;93.60;;;;;;5009848;28;20725;-54
2021/05/19 05:47:57;;;;;;;7.87;7.07;;;13.00;93.70;;;;;;5010441;28;20612;-54
2021/05/19 05:50:24;;;;;;;8.30;7.23;;;13.00;94.00;;;;;;5010970;28;20654;-54
2021/05/19 05:52:51;;;;;;;7.80;7.03;;;13.00;94.10;;;;;;5011001;28;21215;-54
2021/05/19 05:55:20;;;;;;;7.87;7.17;;;13.00;94.00;;;;;;5010631;28;20733;-54
2021/05/19 05:57:48;;;;;;;7.83;7.13;;;12.90;94.10;;;;;;5010580;28;20658;-55
2021/05/19 06:00:15;;;;;;;8.47;7.60;;;13.00;94.60;;;;;;5011095;28;20624;-54
2021/05/19 06:02:42;;;;;;;8.40;7.60;;;13.00;94.00;;;;;;5009850;28;21271;-54
2021/05/19 06:05:10;;;;;;;9.27;7.57;;;13.00;93.90;;;;;;5010362;28;20694;-54
2021/05/19 06:07:37;;;;;;;6.87;6.20;;;12.90;93.90;;;;;;5010684;28;21029;-54
2021/05/19 06:10:04;;;;;;;8.40;7.50;;;12.90;93.90;;;;;;5010630;28;21063;-53
2021/05/19 06:12:31;;;;;;;8.33;7.53;;;13.00;94.20;;;;;;5011060;28;20624;-54
2021/05/19 06:14:58;;;;;;;6.93;6.33;;;13.00;94.30;;;;;;5010192;28;20683;-54
2021/05/19 06:17:25;;;;;;;7.40;6.67;;;13.00;94.20;;;;;;4993216;28;20629;-54
2021/05/19 06:19:52;;;;;;;8.40;7.60;;;13.10;94.70;;;;;;5002206;28;20762;-54
2021/05/19 06:22:19;;;;;;;8.53;6.40;;;13.10;94.30;;;;;;5009989;28;20659;-54
2021/05/19 06:24:46;;;;;;;6.87;6.40;;;13.20;94.20;;;;;;5010007;28;20642;-53
2021/05/19 06:27:13;;;;;;;7.53;6.83;;;13.30;93.70;;;;;;5008747;28;20624;-54
2021/05/19 06:29:40;;;;;;;8.47;6.90;;;13.30;93.50;;;;;;5009929;28;20656;-54
2021/05/19 06:32:08;;;;;;;8.40;7.17;;;13.30;93.60;;;;;;5009811;28;20624;-54
2021/05/19 06:34:35;;;;;;;8.17;7.40;;;13.40;93.50;;;;;;5010188;28;20623;-50
2021/05/19 06:37:02;;;;;;;6.70;6.13;;;13.40;94.60;;;;;;5010678;28;20623;-50
2021/05/19 06:39:29;;;;;;;7.00;5.97;;;13.60;94.30;;;;;;5010071;28;20655;-51
2021/05/19 06:41:56;;;;;;;8.23;7.40;;;13.60;93.30;;;;;;5010030;28;20668;-52
2021/05/19 06:44:22;;;;;;;9.63;6.47;;;13.90;93.70;;;;;;5009513;28;20663;-51
2021/05/19 06:46:50;;;;;;;6.40;5.07;;;14.00;92.60;;;;;;5009226;28;21201;-50
2021/05/19 06:49:17;;;;;;;6.87;5.63;;;14.30;92.40;;;;;;5009053;28;20709;-53
2021/05/19 06:51:45;;;;;;;6.90;5.53;;;14.40;91.90;;;;;;5010118;28;20690;-53
2021/05/19 06:54:12;;;;;;;7.30;6.60;;;14.40;91.30;;;;;;5009236;28;20693;-53
2021/05/19 06:56:43;;;;;;;6.60;6.00;;;14.40;90.90;;;;;;5010408;28;20667;-53
2021/05/19 06:59:10;;;;;;;6.60;6.07;;;14.30;90.60;;;;;;5009828;28;20673;-53
2021/05/19 07:01:36;;;;;;;7.23;6.63;;;14.30;91.60;;;;;;5010100;28;20631;-53
2021/05/19 07:04:03;;;;;;;6.73;6.17;;;14.30;91.50;;;;;;5009526;28;20735;-52
2021/05/19 07:06:31;;;;;;;5.83;5.23;;;14.30;91.40;;;;;;5009855;28;20664;-53
2021/05/19 07:08:58;;;;;;;6.77;6.17;;;14.30;91.60;;;;;;5009806;28;20628;-52
2021/05/19 07:11:25;;;;;;;7.60;6.90;;;14.20;91.70;;;;;;5010080;28;21229;-52
2021/05/19 07:13:54;;;;;;;7.97;6.43;;;14.30;91.80;;;;;;5009398;28;20678;-53
2021/05/19 07:16:23;;;;;;;6.10;5.60;;;14.40;91.80;;;;;;5009902;28;21055;-52
2021/05/19 07:18:50;;;;;;;6.40;5.40;;;14.50;91.30;;;;;;5006746;28;21068;-51
2021/05/19 07:21:17;;;;;;;6.97;6.20;;;14.60;91.20;;;;;;5008650;28;21014;-51
2021/05/19 07:23:44;;;;;;;7.60;6.90;;;14.60;90.60;;;;;;5008797;28;20652;-50
2021/05/19 07:26:11;;;;;;;7.60;6.90;;;14.50;91.30;;;;;;5009472;28;21312;-51
2021/05/19 07:28:38;;;;;;;6.53;6.03;;;14.50;91.10;;;;;;5007935;28;20702;-51
2021/05/19 07:31:05;;;;;;;7.50;6.90;;;14.70;91.60;;;;;;5009706;28;20710;-50
2021/05/19 07:33:31;;;;;;;7.27;6.60;;;14.80;91.20;;;;;;5009490;28;21016;-50
2021/05/19 07:35:58;;;;;;;7.50;6.90;;;15.00;90.60;;;;;;5009750;28;20665;-50
2021/05/19 07:38:25;;;;;;;7.80;7.20;;;15.10;89.30;;;;;;5009580;28;20762;-51
2021/05/19 07:40:53;;;;;;;8.27;7.47;;;15.20;88.40;;;;;;5013443;28;20711;-50
2021/05/19 07:43:20;;;;;;;8.03;7.33;;;15.20;88.10;;;;;;5014110;28;21218;-51
2021/05/19 07:45:46;;;;;;;6.90;6.40;;;15.20;88.30;;;;;;5012737;28;20659;-51
2021/05/19 07:48:13;;;;;;;7.70;7.10;;;15.30;88.30;;;;;;5013359;28;21231;-51
2021/05/19 07:50:40;;;;;;;7.70;7.00;;;15.50;87.40;;;;;;5013250;28;20620;-50
2021/05/19 07:53:08;;;;;;;5.80;5.40;;;15.50;85.80;;;;;;5013206;28;21172;-51
2021/05/19 07:55:44;;;;;;;5.30;4.90;;;15.50;86.30;;;;;;5012612;28;20656;-50
2021/05/19 07:58:17;;;;;;;6.20;5.70;;;15.50;84.40;;;;;;5013497;28;20631;-50
2021/05/19 08:00:57;;;;;;;7.20;6.53;;;15.50;85.20;;;;;;5013116;28;20616;-51
2021/05/19 08:03:24;;;;;;;7.00;6.50;;;15.70;85.30;;;;;;5013623;28;20667;-51
2021/05/19 08:05:50;;;;;;;5.63;5.13;;;16.00;82.90;;;;;;5012529;28;21020;-51
2021/05/19 08:08:19;;;;;;;5.77;5.27;;;16.00;81.60;;;;;;5013013;28;21160;-51
2021/05/19 08:10:45;;;;;;;6.40;5.90;;;16.10;82.00;;;;;;5013531;28;20643;-50
2021/05/19 08:13:13;;;;;;;5.47;4.97;;;16.00;81.90;;;;;;5012904;28;20697;-51
2021/05/19 08:15:40;;;;;;;6.87;6.13;;;15.90;82.50;;;;;;5012534;28;20714;-51
2021/05/19 08:18:07;;;;;;;7.10;6.50;;;15.80;83.40;;;;;;5012584;28;20985;-51
2021/05/19 08:20:34;;;;;;;6.63;5.93;;;15.80;83.60;;;;;;5013041;28;20623;-52
2021/05/19 08:23:01;;;;;;;6.37;5.77;;;15.80;83.80;;;;;;5012709;28;20771;-52
2021/05/19 08:25:28;;;;;;;7.40;5.57;;;15.90;84.00;;;;;;5012554;28;20656;-53
2021/05/19 08:27:55;;;;;;;6.00;5.50;;;16.00;84.20;;;;;;5012241;28;20663;-52
2021/05/19 08:30:23;;;;;;;6.17;5.23;;;16.10;83.50;;;;;;5012968;28;21156;-50
2021/05/19 08:32:51;;;;;;;5.73;5.23;;;16.20;82.70;;;;;;5012065;28;20684;-50
2021/05/19 08:35:18;;;;;;;7.77;6.00;;;16.10;81.50;;;;;;5012784;28;20726;-50
2021/05/19 08:37:45;;;;;;;4.70;3.73;;;16.10;81.40;;;;;;5012079;28;20679;-50
2021/05/19 08:40:12;;;;;;;4.30;3.90;;;16.20;80.30;;;;;;5012918;28;20631;-50
2021/05/19 08:42:39;;;;;;;5.07;4.60;;;16.20;77.90;;;;;;5012295;28;20644;-50
2021/05/19 08:45:07;;;;;;;5.57;5.07;;;16.20;78.30;;;;;;5012269;28;20652;-50
2021/05/19 08:47:35;;;;;;;5.27;4.87;;;16.20;78.60;;;;;;5011870;28;20643;-50
2021/05/19 08:50:02;;;;;;;4.97;4.57;;;16.20;79.60;;;;;;5010336;28;20995;-50
2021/05/19 08:52:29;;;;;;;4.73;4.33;;;16.30;80.00;;;;;;5011604;28;20701;-50
2021/05/19 08:54:56;;;;;;;5.10;4.70;;;16.50;80.20;;;;;;5012542;28;20685;-51
2021/05/19 08:57:23;;;;;;;4.90;4.23;;;16.80;78.40;;;;;;5012090;28;20628;-50
2021/05/19 08:59:50;;;;;;;6.10;4.20;;;17.20;75.90;;;;;;5012319;28;20966;-50
2021/05/19 09:02:17;;;;;;;6.63;5.93;;;17.40;74.70;;;;;;5012394;28;20697;-50
2021/05/19 09:04:45;;;;;;;5.20;4.80;;;17.60;72.90;;;;;;5012330;28;20628;-50
2021/05/19 09:07:17;;;;;;;6.03;5.50;;;17.60;71.70;;;;;;5011648;28;21277;-51
2021/05/19 09:09:45;;;;;;;5.40;4.90;;;17.40;71.90;;;;;;5012485;28;20654;-50
2021/05/19 09:12:12;;;;;;;5.33;4.93;;;17.40;73.30;;;;;;5012078;28;20624;-50
2021/05/19 09:14:41;;;;;;;5.13;4.73;;;17.40;72.70;;;;;;5011483;28;20675;-50
2021/05/19 09:17:23;;;;;;;6.37;5.03;;;17.50;72.30;;;;;;5012171;28;20700;-50
2021/05/19 09:19:52;;;;;;;7.33;6.53;;;17.70;72.20;;;;;;5011608;28;20623;-50
2021/05/19 09:22:20;;;;;;;6.27;5.67;;;17.60;70.60;;;;;;5011888;28;20631;-50
2021/05/19 09:24:48;;;;;;;6.23;5.63;;;17.50;70.60;;;;;;5011397;28;20701;-50
2021/05/19 09:27:15;;;;;;;6.20;5.00;;;17.40;70.70;;;;;;5011215;28;20678;-50
2021/05/19 09:29:45;;;;;;;5.37;4.97;;;17.30;71.80;;;;;;5010994;28;20657;-50
2021/05/19 09:32:13;;;;;;;6.90;6.20;;;17.20;73.00;;;;;;5011860;28;20749;-51
2021/05/19 09:34:40;;;;;;;6.57;6.00;;;17.40;73.60;;;;;;5011334;28;20626;-50
2021/05/19 09:37:23;;;;;;;5.43;4.93;;;17.60;71.80;;;;;;5011665;28;20635;-50
2021/05/19 09:39:52;;;;;;;4.97;4.47;;;17.90;71.50;;;;;;5012075;28;20674;-50
2021/05/19 09:42:19;;;;;;;6.80;5.20;;;18.10;68.20;;;;;;5011729;28;20692;-50
2021/05/19 09:44:47;;;;;;;5.33;4.93;;;18.00;68.10;;;;;;5011533;28;20656;-50
2021/05/19 09:47:14;;;;;;;8.43;7.63;;;17.90;70.20;;;;;;5011064;28;20681;-50
2021/05/19 09:49:41;;;;;;;7.40;6.23;;;17.70;71.60;;;;;;5011104;28;21149;-49
2021/05/19 09:52:10;;;;;;;6.97;6.30;;;17.40;73.00;;;;;;5011397;28;20709;-50
2021/05/19 09:54:39;;;;;;;7.07;6.30;;;17.30;74.40;;;;;;5011296;28;20678;-49
2021/05/19 09:57:06;;;;;;;6.33;5.47;;;17.40;75.40;;;;;;5010800;28;21193;-51
2021/05/19 09:59:33;;;;;;;6.27;5.70;;;17.40;76.10;;;;;;5011359;28;20631;-50
2021/05/19 10:02:00;;;;;;;4.97;4.47;;;17.70;74.80;;;;;;5010915;28;20684;-51
2021/05/19 10:04:29;;;;;;;5.27;4.73;;;18.00;73.40;;;;;;5010634;28;20714;-52
2021/05/19 10:06:56;;;;;;;4.10;3.70;;;18.10;71.60;;;;;;5010331;28;20710;-51
2021/05/19 10:09:25;;;;;;;4.30;3.90;;;18.00;70.10;;;;;;5010864;28;20623;-50
2021/05/19 10:11:53;;;;;;;4.30;3.53;;;17.70;70.50;;;;;;5011058;28;20620;-50
2021/05/19 10:14:21;;;;;;;4.03;3.53;;;17.70;66.00;;;;;;5010938;28;20627;-53
2021/05/19 10:16:51;;;;;;;5.60;2.90;;;18.00;66.40;;;;;;5010309;28;20647;-51
2021/05/19 10:19:24;;;;;;;2.80;2.60;;;18.40;65.00;;;;;;5010588;28;20620;-52
2021/05/19 10:21:50;;;;;;;4.20;2.17;;;18.90;58.80;;;;;;5010736;28;20657;-52
2021/05/19 10:24:17;;;;;;;2.27;2.07;;;19.00;57.00;;;;;;5010719;28;20660;-52
2021/05/19 10:27:02;;;;;;;2.20;1.70;;;19.00;54.70;;;;;;5010297;28;20651;-52
2021/05/19 10:29:51;;;;;;;3.13;1.50;;;19.00;52.50;;;;;;5010550;28;21180;-51
2021/05/19 10:32:31;;;;;;;1.60;1.43;;;19.00;53.50;;;;;;5010587;28;21173;-51
2021/05/19 10:34:58;;;;;;;1.60;1.50;;;19.00;51.80;;;;;;5009922;28;20647;-52
2021/05/19 10:37:46;;;;;;;3.50;1.43;;;19.00;50.70;;;;;;5009297;28;20701;-53
2021/05/19 10:40:28;;;;;;;4.00;1.43;;;18.90;49.20;;;;;;5008896;28;20659;-53
2021/05/19 10:42:57;;;;;;;2.30;1.03;;;18.60;51.70;;;;;;5009280;28;20785;-50
2021/05/19 10:45:24;;;;;;;3.90;1.37;;;18.10;53.90;;;;;;5010339;28;20663;-51
2021/05/19 10:47:51;;;;;;;1.50;1.40;;;18.00;55.60;;;;;;5009924;28;20655;-50
2021/05/19 10:50:23;;;;;;;2.77;1.77;;;18.00;54.70;;;;;;4991160;28;20699;-50
2021/05/19 10:58:59;;;;;;;4.43;1.37;;;18.20;51.20;;;;;;4977428;28;20659;-51
2021/05/19 11:01:54;;;;;;;3.03;1.37;;;18.30;50.20;;;;;;4990458;28;20632;-54
2021/05/19 11:04:21;;;;;;;3.47;1.90;;;18.30;50.50;;;;;;4989690;28;20681;-52
2021/05/19 11:07:06;;;;;;;5.53;2.07;;;18.30;50.50;;;;;;4990727;28;20657;-52
2021/05/19 11:09:33;;;;;;;2.60;1.27;;;18.50;50.90;;;;;;4999285;28;20624;-52
2021/05/19 11:12:38;;;;;;;1.67;1.20;;;18.80;50.90;;;;;;5010178;28;20669;-54
2021/05/19 11:15:47;;;;;;;2.50;1.77;;;19.10;50.20;;;;;;5008240;28;20714;-52
2021/05/19 11:18:17;;;;;;;6.13;1.40;;;19.30;49.20;;;;;;5009773;28;20624;-54
2021/05/19 11:20:44;;;;;;;1.50;1.40;;;19.50;48.80;;;;;;5007337;28;20766;-52
2021/05/19 11:23:13;;;;;;;3.57;1.40;;;19.70;49.40;;;;;;5010039;28;20868;-50
2021/05/19 11:25:40;;;;;;;2.00;1.30;;;19.90;48.20;;;;;;5009717;28;20663;-50
2021/05/19 11:28:07;;;;;;;2.60;1.60;;;20.20;47.20;;;;;;5008885;28;20624;-51
2021/05/19 11:30:34;;;;;;;3.47;1.80;;;20.40;47.30;;;;;;5010308;28;20620;-52
2021/05/19 11:33:05;;;;;;;1.40;1.20;;;20.50;47.00;;;;;;5010213;28;20690;-52
2021/05/19 11:35:33;;;;;;;5.40;1.40;;;20.50;46.30;;;;;;5009773;28;20721;-53
2021/05/19 11:38:00;;;;;;;2.37;1.40;;;20.50;44.50;;;;;;5007073;28;20640;-52
2021/05/19 11:40:41;;;;;;;1.30;1.20;;;20.40;45.00;;;;;;5007767;28;20954;-53
2021/05/19 11:43:08;;;;;;;1.93;1.50;;;20.20;44.60;;;;;;5009539;28;20698;-53
2021/05/19 11:45:35;;;;;;;1.90;1.37;;;20.30;45.70;;;;;;5009973;28;20770;-51
2021/05/19 11:48:01;;;;;;;1.63;1.10;;;20.40;45.30;;;;;;5009714;28;20801;-52
2021/05/19 11:50:29;;;;;;;5.20;2.37;;;20.50;44.40;;;;;;5010019;28;21204;-53
2021/05/19 11:52:58;;;;;;;3.77;1.23;;;20.30;43.50;;;;;;5009708;28;21017;-52
2021/05/19 11:55:30;;;;;;;2.87;1.20;;;20.20;42.60;;;;;;5008962;28;21090;-53
2021/05/19 11:58:04;;;;;;;3.10;1.07;;;20.10;42.20;;;;;;5009667;28;20682;-53
2021/05/19 12:00:31;;;;;;;8.27;1.80;;;20.10;42.30;;;;;;5009435;28;21181;-53
2021/05/19 12:02:59;;;;;;;3.60;1.30;;;20.10;42.30;;;;;;5009914;28;20686;-54
2021/05/19 12:05:25;;;;;;;0.93;0.70;;;20.20;41.70;;;;;;5008434;28;20718;-51
2021/05/19 12:07:52;;;;;;;1.70;1.20;;;20.20;40.90;;;;;;5008948;28;20650;-53
2021/05/19 12:10:21;;;;;;;1.47;1.03;;;20.20;41.60;;;;;;5009186;28;20659;-51
2021/05/19 12:12:53;;;;;;;2.30;0.83;;;20.10;41.00;;;;;;5009297;28;20630;-52
2021/05/19 12:15:20;;;;;;;5.83;1.80;;;20.00;41.90;;;;;;5008968;28;20755;-54
2021/05/19 12:17:47;;;;;;;4.10;1.20;;;19.90;42.70;;;;;;5008532;28;20635;-51
2021/05/19 12:20:21;;;;;;;5.97;1.63;;;20.00;39.20;;;;;;5009885;28;21173;-54
2021/05/19 12:22:48;;;;;;;5.13;0.90;;;20.30;38.00;;;;;;5007323;28;20682;-54
2021/05/19 12:25:15;;;;;;;1.73;1.47;;;20.60;36.90;;;;;;5009856;28;20694;-54
2021/05/19 12:27:42;;;;;;;1.30;0.90;;;20.90;36.90;;;;;;5012131;28;20972;-53
2021/05/19 12:30:10;;;;;;;2.10;1.07;;;21.40;36.70;;;;;;5013370;28;20644;-53
2021/05/19 12:32:40;;;;;;;1.70;1.23;;;22.20;35.80;;;;;;5012935;28;20635;-53
2021/05/19 12:35:08;;;;;;;3.47;1.43;;;22.70;35.80;;;;;;5012566;28;20652;-52
2021/05/19 12:37:39;;;;;;;2.97;1.50;;;23.20;34.30;;;;;;5012003;28;20624;-53
2021/05/19 12:40:07;;;;;;;1.00;0.90;;;23.30;34.20;;;;;;5012551;28;20685;-54
2021/05/19 12:42:40;;;;;;;1.37;1.07;;;23.50;33.30;;;;;;5011949;28;21185;-54
2021/05/19 12:45:09;;;;;;;2.03;1.10;;;23.50;33.20;;;;;;5011965;28;21051;-53
2021/05/19 12:47:35;;;;;;;1.40;0.80;;;23.40;33.50;;;;;;5012381;28;20763;-53
2021/05/19 12:50:04;;;;;;;2.97;1.30;;;23.20;33.60;;;;;;5013137;28;20646;-51
2021/05/19 12:52:31;;;;;;;1.40;1.10;;;22.90;33.50;;;;;;5011947;28;21141;-53
2021/05/19 12:54:58;;;;;;;3.33;1.20;;;22.40;33.70;;;;;;5011689;28;20725;-54
2021/05/19 12:57:26;;;;;;;3.07;1.13;;;21.90;35.00;;;;;;5011909;28;20628;-54
2021/05/19 12:59:59;;;;;;;1.00;0.80;;;21.70;35.80;;;;;;5012168;28;20709;-53